sensor_id;sensor_type;location;lat;lon;timestamp;P1;durP1;ratioP1;P2;durP2;ratioP2
13012;SDS011;22580;57.670;12.006;2023-04-03T00:02:25;0.20;;;0.20;;
13012;SDS011;22580;57.670;12.006;2023-04-03T00:05:04;0.20;;;0.20;;
13012;SDS011;22580;57.670;12.006;2023-04-03T00:07:42;0.20;;;0.20;;
13012;SDS011;22580;57.670;12.006;2023-04-03T00:10:13;0.20;;;0.20;;
13012;SDS011;22580;57.670;12.006;2023-04-03T00:12:43;0.27;;;0.27;;
13012;SDS011;22580;57.670;12.006;2023-04-03T00:15:12;0.20;;;0.20;;
13012;SDS011;22580;57.670;12.006;2023-04-03T00:17:42;0.20;;;0.20;;
13012;SDS011;22580;57.670;12.006;2023-04-03T00:20:12;0.10;;;0.10;;
13012;SDS011;22580;57.670;12.006;2023-04-03T00:22:42;0.10;;;0.10;;
13012;SDS011;22580;57.670;12.006;2023-04-03T00:25:15;0.10;;;0.10;;
13012;SDS011;22580;57.670;12.006;2023-04-03T00:27:54;0.20;;;0.20;;
13012;SDS011;22580;57.670;12.006;2023-04-03T00:30:24;0.10;;;0.10;;
13012;SDS011;22580;57.670;12.006;2023-04-03T00:33:06;0.10;;;0.10;;
13012;SDS011;22580;57.670;12.006;2023-04-03T00:35:53;0.20;;;0.20;;
13012;SDS011;22580;57.670;12.006;2023-04-03T00:38:24;0.37;;;0.20;;
13012;SDS011;22580;57.670;12.006;2023-04-03T00:40:55;0.20;;;0.20;;
13012;SDS011;22580;57.670;12.006;2023-04-03T00:43:34;0.20;;;0.20;;
13012;SDS011;22580;57.670;12.006;2023-04-03T00:46:04;0.30;;;0.20;;
13012;SDS011;22580;57.670;12.006;2023-04-03T00:48:34;0.20;;;0.20;;
13012;SDS011;22580;57.670;12.006;2023-04-03T00:51:09;0.20;;;0.20;;
13012;SDS011;22580;57.670;12.006;2023-04-03T00:53:43;0.10;;;0.10;;
13012;SDS011;22580;57.670;12.006;2023-04-03T00:56:24;0.10;;;0.10;;
13012;SDS011;22580;57.670;12.006;2023-04-03T00:59:04;0.20;;;0.20;;
13012;SDS011;22580;57.670;12.006;2023-04-03T01:04:26;0.20;;;0.20;;
13012;SDS011;22580;57.670;12.006;2023-04-03T01:07:05;0.10;;;0.10;;
13012;SDS011;22580;57.670;12.006;2023-04-03T01:10:00;0.10;;;0.10;;
13012;SDS011;22580;57.670;12.006;2023-04-03T01:12:33;0.10;;;0.10;;
13012;SDS011;22580;57.670;12.006;2023-04-03T01:15:04;0.10;;;0.10;;
13012;SDS011;22580;57.670;12.006;2023-04-03T01:17:40;0.20;;;0.20;;
13012;SDS011;22580;57.670;12.006;2023-04-03T01:23:25;0.20;;;0.20;;
13012;SDS011;22580;57.670;12.006;2023-04-03T01:26:06;0.17;;;0.17;;
13012;SDS011;22580;57.670;12.006;2023-04-03T01:28:44;0.13;;;0.13;;
13012;SDS011;22580;57.670;12.006;2023-04-03T01:31:13;0.10;;;0.10;;
13012;SDS011;22580;57.670;12.006;2023-04-03T01:33:53;0.10;;;0.10;;
13012;SDS011;22580;57.670;12.006;2023-04-03T01:36:23;0.10;;;0.10;;
13012;SDS011;22580;57.670;12.006;2023-04-03T01:39:05;0.00;;;0.00;;
13012;SDS011;22580;57.670;12.006;2023-04-03T01:41:42;0.10;;;0.10;;
13012;SDS011;22580;57.670;12.006;2023-04-03T01:44:13;0.10;;;0.10;;
13012;SDS011;22580;57.670;12.006;2023-04-03T01:46:41;0.20;;;0.20;;
13012;SDS011;22580;57.670;12.006;2023-04-03T01:49:12;0.20;;;0.20;;
13012;SDS011;22580;57.670;12.006;2023-04-03T01:51:45;0.00;;;0.00;;
13012;SDS011;22580;57.670;12.006;2023-04-03T01:54:25;0.10;;;0.10;;
13012;SDS011;22580;57.670;12.006;2023-04-03T01:57:03;0.20;;;0.20;;
13012;SDS011;22580;57.670;12.006;2023-04-03T01:59:32;0.10;;;0.10;;
13012;SDS011;22580;57.670;12.006;2023-04-03T02:02:04;0.10;;;0.10;;
13012;SDS011;22580;57.670;12.006;2023-04-03T02:04:35;0.10;;;0.10;;
13012;SDS011;22580;57.670;12.006;2023-04-03T02:07:13;0.20;;;0.20;;
13012;SDS011;22580;57.670;12.006;2023-04-03T02:09:42;0.10;;;0.10;;
13012;SDS011;22580;57.670;12.006;2023-04-03T02:12:15;0.10;;;0.10;;
13012;SDS011;22580;57.670;12.006;2023-04-03T02:14:55;0.10;;;0.10;;
13012;SDS011;22580;57.670;12.006;2023-04-03T02:17:24;0.10;;;0.10;;
13012;SDS011;22580;57.670;12.006;2023-04-03T02:19:52;0.10;;;0.10;;
13012;SDS011;22580;57.670;12.006;2023-04-03T02:22:22;0.20;;;0.20;;
13012;SDS011;22580;57.670;12.006;2023-04-03T02:24:49;0.03;;;0.03;;
13012;SDS011;22580;57.670;12.006;2023-04-03T02:27:42;0.10;;;0.10;;
13012;SDS011;22580;57.670;12.006;2023-04-03T02:30:13;0.10;;;0.10;;
13012;SDS011;22580;57.670;12.006;2023-04-03T02:32:40;0.10;;;0.10;;
13012;SDS011;22580;57.670;12.006;2023-04-03T02:35:14;0.10;;;0.10;;
13012;SDS011;22580;57.670;12.006;2023-04-03T02:37:44;0.10;;;0.10;;
13012;SDS011;22580;57.670;12.006;2023-04-03T02:40:11;0.10;;;0.10;;
13012;SDS011;22580;57.670;12.006;2023-04-03T02:42:40;0.13;;;0.13;;
13012;SDS011;22580;57.670;12.006;2023-04-03T02:45:12;0.20;;;0.20;;
13012;SDS011;22580;57.670;12.006;2023-04-03T02:47:44;0.10;;;0.10;;
13012;SDS011;22580;57.670;12.006;2023-04-03T02:50:15;0.10;;;0.10;;
13012;SDS011;22580;57.670;12.006;2023-04-03T02:52:52;0.10;;;0.10;;
13012;SDS011;22580;57.670;12.006;2023-04-03T02:55:19;0.10;;;0.10;;
13012;SDS011;22580;57.670;12.006;2023-04-03T02:57:55;0.10;;;0.10;;
13012;SDS011;22580;57.670;12.006;2023-04-03T03:00:33;0.20;;;0.20;;
13012;SDS011;22580;57.670;12.006;2023-04-03T03:03:03;0.10;;;0.10;;
13012;SDS011;22580;57.670;12.006;2023-04-03T03:05:34;0.20;;;0.20;;
13012;SDS011;22580;57.670;12.006;2023-04-03T03:08:04;0.10;;;0.10;;
13012;SDS011;22580;57.670;12.006;2023-04-03T03:10:31;0.10;;;0.10;;
13012;SDS011;22580;57.670;12.006;2023-04-03T03:13:02;0.10;;;0.10;;
13012;SDS011;22580;57.670;12.006;2023-04-03T03:15:35;0.10;;;0.10;;
13012;SDS011;22580;57.670;12.006;2023-04-03T03:18:10;0.10;;;0.10;;
13012;SDS011;22580;57.670;12.006;2023-04-03T03:23:34;0.10;;;0.10;;
13012;SDS011;22580;57.670;12.006;2023-04-03T03:26:03;0.10;;;0.10;;
13012;SDS011;22580;57.670;12.006;2023-04-03T03:28:33;0.10;;;0.10;;
13012;SDS011;22580;57.670;12.006;2023-04-03T03:31:01;0.10;;;0.10;;
13012;SDS011;22580;57.670;12.006;2023-04-03T03:33:29;0.00;;;0.00;;
13012;SDS011;22580;57.670;12.006;2023-04-03T03:36:00;0.10;;;0.10;;
13012;SDS011;22580;57.670;12.006;2023-04-03T03:38:29;0.10;;;0.10;;
13012;SDS011;22580;57.670;12.006;2023-04-03T03:43:43;0.10;;;0.10;;
13012;SDS011;22580;57.670;12.006;2023-04-03T03:46:11;0.10;;;0.10;;
13012;SDS011;22580;57.670;12.006;2023-04-03T03:48:38;0.00;;;0.00;;
13012;SDS011;22580;57.670;12.006;2023-04-03T03:51:21;0.10;;;0.10;;
13012;SDS011;22580;57.670;12.006;2023-04-03T03:53:52;0.10;;;0.10;;
13012;SDS011;22580;57.670;12.006;2023-04-03T03:56:22;0.10;;;0.10;;
13012;SDS011;22580;57.670;12.006;2023-04-03T03:58:52;0.10;;;0.10;;
13012;SDS011;22580;57.670;12.006;2023-04-03T04:01:21;0.10;;;0.10;;
13012;SDS011;22580;57.670;12.006;2023-04-03T04:03:50;0.10;;;0.10;;
13012;SDS011;22580;57.670;12.006;2023-04-03T04:06:24;0.10;;;0.10;;
13012;SDS011;22580;57.670;12.006;2023-04-03T04:08:51;0.10;;;0.10;;
13012;SDS011;22580;57.670;12.006;2023-04-03T04:11:24;0.13;;;0.13;;
13012;SDS011;22580;57.670;12.006;2023-04-03T04:14:04;0.10;;;0.10;;
13012;SDS011;22580;57.670;12.006;2023-04-03T04:16:33;0.10;;;0.10;;
13012;SDS011;22580;57.670;12.006;2023-04-03T04:19:00;0.07;;;0.07;;
13012;SDS011;22580;57.670;12.006;2023-04-03T04:21:33;0.07;;;0.07;;
13012;SDS011;22580;57.670;12.006;2023-04-03T04:24:00;0.10;;;0.10;;
13012;SDS011;22580;57.670;12.006;2023-04-03T04:26:35;0.10;;;0.10;;
13012;SDS011;22580;57.670;12.006;2023-04-03T04:29:12;0.10;;;0.10;;
13012;SDS011;22580;57.670;12.006;2023-04-03T04:31:39;0.10;;;0.10;;
13012;SDS011;22580;57.670;12.006;2023-04-03T04:34:09;0.10;;;0.10;;
13012;SDS011;22580;57.670;12.006;2023-04-03T04:36:44;0.10;;;0.10;;
13012;SDS011;22580;57.670;12.006;2023-04-03T04:39:11;0.10;;;0.10;;
13012;SDS011;22580;57.670;12.006;2023-04-03T04:41:42;0.10;;;0.10;;
13012;SDS011;22580;57.670;12.006;2023-04-03T04:44:15;0.10;;;0.10;;
13012;SDS011;22580;57.670;12.006;2023-04-03T04:46:53;0.07;;;0.07;;
13012;SDS011;22580;57.670;12.006;2023-04-03T04:49:22;0.10;;;0.10;;
13012;SDS011;22580;57.670;12.006;2023-04-03T04:51:53;0.10;;;0.10;;
13012;SDS011;22580;57.670;12.006;2023-04-03T04:54:20;0.10;;;0.10;;
13012;SDS011;22580;57.670;12.006;2023-04-03T04:56:50;0.10;;;0.10;;
13012;SDS011;22580;57.670;12.006;2023-04-03T04:59:17;0.17;;;0.17;;
13012;SDS011;22580;57.670;12.006;2023-04-03T05:01:54;0.10;;;0.10;;
13012;SDS011;22580;57.670;12.006;2023-04-03T05:04:21;0.10;;;0.10;;
13012;SDS011;22580;57.670;12.006;2023-04-03T05:06:50;0.10;;;0.10;;
13012;SDS011;22580;57.670;12.006;2023-04-03T05:09:19;0.10;;;0.10;;
13012;SDS011;22580;57.670;12.006;2023-04-03T05:11:52;0.00;;;0.00;;
13012;SDS011;22580;57.670;12.006;2023-04-03T05:14:33;0.10;;;0.10;;
13012;SDS011;22580;57.670;12.006;2023-04-03T05:17:03;0.10;;;0.10;;
13012;SDS011;22580;57.670;12.006;2023-04-03T05:19:30;0.10;;;0.10;;
13012;SDS011;22580;57.670;12.006;2023-04-03T05:22:02;0.00;;;0.00;;
13012;SDS011;22580;57.670;12.006;2023-04-03T05:24:29;0.10;;;0.10;;
13012;SDS011;22580;57.670;12.006;2023-04-03T05:26:58;0.10;;;0.10;;
13012;SDS011;22580;57.670;12.006;2023-04-03T05:29:28;0.17;;;0.17;;
13012;SDS011;22580;57.670;12.006;2023-04-03T05:32:03;0.10;;;0.10;;
13012;SDS011;22580;57.670;12.006;2023-04-03T05:34:30;0.10;;;0.10;;
13012;SDS011;22580;57.670;12.006;2023-04-03T05:37:03;0.20;;;0.20;;
13012;SDS011;22580;57.670;12.006;2023-04-03T05:39:30;0.20;;;0.20;;
13012;SDS011;22580;57.670;12.006;2023-04-03T05:42:05;0.30;;;0.30;;
13012;SDS011;22580;57.670;12.006;2023-04-03T05:44:33;0.30;;;0.30;;
13012;SDS011;22580;57.670;12.006;2023-04-03T05:47:00;0.30;;;0.30;;
13012;SDS011;22580;57.670;12.006;2023-04-03T05:49:29;0.20;;;0.20;;
13012;SDS011;22580;57.670;12.006;2023-04-03T05:51:59;0.40;;;0.40;;
13012;SDS011;22580;57.670;12.006;2023-04-03T05:54:35;0.30;;;0.30;;
13012;SDS011;22580;57.670;12.006;2023-04-03T05:57:09;0.40;;;0.40;;
13012;SDS011;22580;57.670;12.006;2023-04-03T05:59:36;0.40;;;0.40;;
13012;SDS011;22580;57.670;12.006;2023-04-03T06:02:14;0.57;;;0.43;;
13012;SDS011;22580;57.670;12.006;2023-04-03T06:04:44;0.30;;;0.30;;
13012;SDS011;22580;57.670;12.006;2023-04-03T06:07:14;0.40;;;0.40;;
13012;SDS011;22580;57.670;12.006;2023-04-03T06:09:50;0.20;;;0.20;;
13012;SDS011;22580;57.670;12.006;2023-04-03T06:12:22;0.30;;;0.30;;
13012;SDS011;22580;57.670;12.006;2023-04-03T06:14:52;0.40;;;0.40;;
13012;SDS011;22580;57.670;12.006;2023-04-03T06:17:19;0.20;;;0.20;;
13012;SDS011;22580;57.670;12.006;2023-04-03T06:19:48;0.30;;;0.30;;
13012;SDS011;22580;57.670;12.006;2023-04-03T06:22:17;0.20;;;0.20;;
13012;SDS011;22580;57.670;12.006;2023-04-03T06:24:50;0.20;;;0.20;;
13012;SDS011;22580;57.670;12.006;2023-04-03T06:27:17;0.20;;;0.20;;
13012;SDS011;22580;57.670;12.006;2023-04-03T06:29:50;0.20;;;0.20;;
13012;SDS011;22580;57.670;12.006;2023-04-03T06:32:18;0.20;;;0.20;;
13012;SDS011;22580;57.670;12.006;2023-04-03T06:34:48;0.20;;;0.20;;
13012;SDS011;22580;57.670;12.006;2023-04-03T06:37:23;0.10;;;0.10;;
13012;SDS011;22580;57.670;12.006;2023-04-03T06:39:53;0.10;;;0.10;;
13012;SDS011;22580;57.670;12.006;2023-04-03T06:42:20;0.20;;;0.20;;
13012;SDS011;22580;57.670;12.006;2023-04-03T06:44:51;0.40;;;0.13;;
13012;SDS011;22580;57.670;12.006;2023-04-03T06:47:19;0.10;;;0.10;;
13012;SDS011;22580;57.670;12.006;2023-04-03T06:49:53;0.23;;;0.23;;
13012;SDS011;22580;57.670;12.006;2023-04-03T06:52:25;0.10;;;0.10;;
13012;SDS011;22580;57.670;12.006;2023-04-03T06:55:03;0.10;;;0.10;;
13012;SDS011;22580;57.670;12.006;2023-04-03T06:57:32;0.10;;;0.10;;
13012;SDS011;22580;57.670;12.006;2023-04-03T07:00:05;0.20;;;0.20;;
13012;SDS011;22580;57.670;12.006;2023-04-03T07:02:35;0.27;;;0.27;;
13012;SDS011;22580;57.670;12.006;2023-04-03T07:05:02;0.40;;;0.40;;
13012;SDS011;22580;57.670;12.006;2023-04-03T07:07:33;0.33;;;0.30;;
13012;SDS011;22580;57.670;12.006;2023-04-03T07:10:02;0.30;;;0.30;;
13012;SDS011;22580;57.670;12.006;2023-04-03T07:12:35;0.60;;;0.40;;
13012;SDS011;22580;57.670;12.006;2023-04-03T07:15:05;0.40;;;0.40;;
13012;SDS011;22580;57.670;12.006;2023-04-03T07:17:36;0.77;;;0.40;;
13012;SDS011;22580;57.670;12.006;2023-04-03T07:20:12;0.30;;;0.30;;
13012;SDS011;22580;57.670;12.006;2023-04-03T07:22:43;0.50;;;0.37;;
13012;SDS011;22580;57.670;12.006;2023-04-03T07:25:12;0.50;;;0.50;;
13012;SDS011;22580;57.670;12.006;2023-04-03T07:27:45;0.67;;;0.67;;
13012;SDS011;22580;57.670;12.006;2023-04-03T07:30:26;0.40;;;0.40;;
13012;SDS011;22580;57.670;12.006;2023-04-03T07:32:57;0.30;;;0.30;;
13012;SDS011;22580;57.670;12.006;2023-04-03T07:35:30;0.30;;;0.30;;
13012;SDS011;22580;57.670;12.006;2023-04-03T07:38:12;0.30;;;0.30;;
13012;SDS011;22580;57.670;12.006;2023-04-03T07:40:45;0.20;;;0.20;;
13012;SDS011;22580;57.670;12.006;2023-04-03T07:43:13;0.30;;;0.30;;
13012;SDS011;22580;57.670;12.006;2023-04-03T07:45:41;0.10;;;0.10;;
13012;SDS011;22580;57.670;12.006;2023-04-03T07:48:08;0.40;;;0.40;;
13012;SDS011;22580;57.670;12.006;2023-04-03T07:50:36;0.80;;;0.60;;
13012;SDS011;22580;57.670;12.006;2023-04-03T07:53:14;1.03;;;0.60;;
13012;SDS011;22580;57.670;12.006;2023-04-03T07:55:45;1.87;;;1.13;;
13012;SDS011;22580;57.670;12.006;2023-04-03T07:58:23;2.83;;;1.30;;
13012;SDS011;22580;57.670;12.006;2023-04-03T08:00:52;3.47;;;1.50;;
13012;SDS011;22580;57.670;12.006;2023-04-03T08:03:25;2.07;;;0.93;;
13012;SDS011;22580;57.670;12.006;2023-04-03T08:05:52;1.77;;;0.70;;
13012;SDS011;22580;57.670;12.006;2023-04-03T08:08:23;0.50;;;0.50;;
13012;SDS011;22580;57.670;12.006;2023-04-03T08:10:53;0.90;;;0.60;;
13012;SDS011;22580;57.670;12.006;2023-04-03T08:13:21;0.40;;;0.40;;
13012;SDS011;22580;57.670;12.006;2023-04-03T08:15:50;0.30;;;0.30;;
13012;SDS011;22580;57.670;12.006;2023-04-03T08:18:24;0.50;;;0.20;;
13012;SDS011;22580;57.670;12.006;2023-04-03T08:20:53;0.33;;;0.23;;
13012;SDS011;22580;57.670;12.006;2023-04-03T08:23:24;0.30;;;0.30;;
13012;SDS011;22580;57.670;12.006;2023-04-03T08:25:51;0.47;;;0.30;;
13012;SDS011;22580;57.670;12.006;2023-04-03T08:28:23;0.23;;;0.20;;
13012;SDS011;22580;57.670;12.006;2023-04-03T08:30:52;0.20;;;0.20;;
13012;SDS011;22580;57.670;12.006;2023-04-03T08:33:34;0.30;;;0.30;;
13012;SDS011;22580;57.670;12.006;2023-04-03T08:36:03;1.20;;;0.33;;
13012;SDS011;22580;57.670;12.006;2023-04-03T08:38:33;0.40;;;0.40;;
13012;SDS011;22580;57.670;12.006;2023-04-03T08:41:04;0.60;;;0.30;;
13012;SDS011;22580;57.670;12.006;2023-04-03T08:43:44;0.30;;;0.30;;
13012;SDS011;22580;57.670;12.006;2023-04-03T08:46:37;0.37;;;0.37;;
13012;SDS011;22580;57.670;12.006;2023-04-03T08:49:24;0.50;;;0.30;;
13012;SDS011;22580;57.670;12.006;2023-04-03T08:52:13;0.30;;;0.30;;
13012;SDS011;22580;57.670;12.006;2023-04-03T08:55:03;0.70;;;0.70;;
13012;SDS011;22580;57.670;12.006;2023-04-03T08:57:41;0.60;;;0.60;;
13012;SDS011;22580;57.670;12.006;2023-04-03T09:00:15;0.60;;;0.50;;
13012;SDS011;22580;57.670;12.006;2023-04-03T09:02:51;0.60;;;0.60;;
13012;SDS011;22580;57.670;12.006;2023-04-03T09:05:25;0.67;;;0.60;;
13012;SDS011;22580;57.670;12.006;2023-04-03T09:08:14;0.47;;;0.10;;
13012;SDS011;22580;57.670;12.006;2023-04-03T09:14:15;0.77;;;0.33;;
13012;SDS011;22580;57.670;12.006;2023-04-03T09:17:13;0.63;;;0.20;;
13012;SDS011;22580;57.670;12.006;2023-04-03T09:19:56;0.67;;;0.40;;
13012;SDS011;22580;57.670;12.006;2023-04-03T09:22:52;0.43;;;0.23;;
13012;SDS011;22580;57.670;12.006;2023-04-03T09:25:26;0.93;;;0.40;;
13012;SDS011;22580;57.670;12.006;2023-04-03T09:28:14;0.50;;;0.33;;
13012;SDS011;22580;57.670;12.006;2023-04-03T09:30:46;0.60;;;0.57;;
13012;SDS011;22580;57.670;12.006;2023-04-03T09:33:24;0.50;;;0.30;;
13012;SDS011;22580;57.670;12.006;2023-04-03T09:35:54;0.20;;;0.20;;
13012;SDS011;22580;57.670;12.006;2023-04-03T09:38:24;0.37;;;0.30;;
13012;SDS011;22580;57.670;12.006;2023-04-03T09:41:04;0.30;;;0.20;;
13012;SDS011;22580;57.670;12.006;2023-04-03T09:43:51;0.30;;;0.30;;
13012;SDS011;22580;57.670;12.006;2023-04-03T09:46:28;0.30;;;0.30;;
13012;SDS011;22580;57.670;12.006;2023-04-03T09:49:13;0.20;;;0.20;;
13012;SDS011;22580;57.670;12.006;2023-04-03T09:51:43;0.20;;;0.20;;
13012;SDS011;22580;57.670;12.006;2023-04-03T09:54:26;0.93;;;0.90;;
13012;SDS011;22580;57.670;12.006;2023-04-03T10:00:04;0.30;;;0.30;;
13012;SDS011;22580;57.670;12.006;2023-04-03T10:02:44;0.40;;;0.40;;
13012;SDS011;22580;57.670;12.006;2023-04-03T10:05:35;0.30;;;0.30;;
13012;SDS011;22580;57.670;12.006;2023-04-03T10:08:27;0.20;;;0.20;;
13012;SDS011;22580;57.670;12.006;2023-04-03T10:11:13;0.53;;;0.40;;
13012;SDS011;22580;57.670;12.006;2023-04-03T10:13:56;0.50;;;0.33;;
13012;SDS011;22580;57.670;12.006;2023-04-03T10:16:29;0.70;;;0.43;;
13012;SDS011;22580;57.670;12.006;2023-04-03T10:19:22;0.47;;;0.47;;
13012;SDS011;22580;57.670;12.006;2023-04-03T10:22:07;0.27;;;0.27;;
13012;SDS011;22580;57.670;12.006;2023-04-03T10:24:58;0.30;;;0.30;;
13012;SDS011;22580;57.670;12.006;2023-04-03T10:27:37;0.20;;;0.20;;
13012;SDS011;22580;57.670;12.006;2023-04-03T10:30:34;0.90;;;0.40;;
13012;SDS011;22580;57.670;12.006;2023-04-03T10:33:26;0.50;;;0.40;;
13012;SDS011;22580;57.670;12.006;2023-04-03T10:36:15;0.30;;;0.30;;
13012;SDS011;22580;57.670;12.006;2023-04-03T10:39:02;0.27;;;0.20;;
13012;SDS011;22580;57.670;12.006;2023-04-03T10:41:43;0.30;;;0.30;;
13012;SDS011;22580;57.670;12.006;2023-04-03T10:44:24;0.30;;;0.30;;
13012;SDS011;22580;57.670;12.006;2023-04-03T10:47:17;2.40;;;1.00;;
13012;SDS011;22580;57.670;12.006;2023-04-03T10:50:06;0.70;;;0.70;;
13012;SDS011;22580;57.670;12.006;2023-04-03T10:52:54;1.10;;;0.40;;
13012;SDS011;22580;57.670;12.006;2023-04-03T10:55:33;0.40;;;0.40;;
13012;SDS011;22580;57.670;12.006;2023-04-03T10:58:17;1.13;;;0.40;;
13012;SDS011;22580;57.670;12.006;2023-04-03T11:04:03;1.07;;;0.40;;
13012;SDS011;22580;57.670;12.006;2023-04-03T11:06:34;0.30;;;0.23;;
13012;SDS011;22580;57.670;12.006;2023-04-03T11:09:18;0.67;;;0.57;;
13012;SDS011;22580;57.670;12.006;2023-04-03T11:11:55;0.30;;;0.30;;
13012;SDS011;22580;57.670;12.006;2023-04-03T11:14:33;0.50;;;0.33;;
13012;SDS011;22580;57.670;12.006;2023-04-03T11:17:15;0.33;;;0.20;;
13012;SDS011;22580;57.670;12.006;2023-04-03T11:20:04;0.30;;;0.30;;
13012;SDS011;22580;57.670;12.006;2023-04-03T11:22:43;0.47;;;0.30;;
13012;SDS011;22580;57.670;12.006;2023-04-03T11:25:25;0.40;;;0.40;;
13012;SDS011;22580;57.670;12.006;2023-04-03T11:27:57;0.27;;;0.27;;
13012;SDS011;22580;57.670;12.006;2023-04-03T11:30:37;0.60;;;0.40;;
13012;SDS011;22580;57.670;12.006;2023-04-03T11:33:24;0.80;;;0.50;;
13012;SDS011;22580;57.670;12.006;2023-04-03T11:36:26;0.43;;;0.40;;
13012;SDS011;22580;57.670;12.006;2023-04-03T11:39:35;0.67;;;0.53;;
13012;SDS011;22580;57.670;12.006;2023-04-03T11:42:29;1.03;;;0.60;;
13012;SDS011;22580;57.670;12.006;2023-04-03T12:03:34;0.73;;;0.63;;
13012;SDS011;22580;57.670;12.006;2023-04-03T12:12:45;1.17;;;0.40;;
13012;SDS011;22580;57.670;12.006;2023-04-03T12:18:53;1.23;;;0.43;;
13012;SDS011;22580;57.670;12.006;2023-04-03T12:24:54;0.63;;;0.50;;
13012;SDS011;22580;57.670;12.006;2023-04-03T12:27:43;0.93;;;0.20;;
13012;SDS011;22580;57.670;12.006;2023-04-03T12:33:26;0.40;;;0.30;;
13012;SDS011;22580;57.670;12.006;2023-04-03T12:36:25;0.50;;;0.40;;
13012;SDS011;22580;57.670;12.006;2023-04-03T12:40:05;0.40;;;0.30;;
13012;SDS011;22580;57.670;12.006;2023-04-03T12:42:56;0.93;;;0.50;;
13012;SDS011;22580;57.670;12.006;2023-04-03T12:45:46;1.50;;;0.37;;
13012;SDS011;22580;57.670;12.006;2023-04-03T12:48:33;2.80;;;0.50;;
13012;SDS011;22580;57.670;12.006;2023-04-03T12:51:34;0.60;;;0.40;;
13012;SDS011;22580;57.670;12.006;2023-04-03T12:54:12;0.30;;;0.30;;
13012;SDS011;22580;57.670;12.006;2023-04-03T12:56:54;0.63;;;0.60;;
13012;SDS011;22580;57.670;12.006;2023-04-03T12:59:57;0.70;;;0.50;;
13012;SDS011;22580;57.670;12.006;2023-04-03T13:02:49;0.73;;;0.43;;
13012;SDS011;22580;57.670;12.006;2023-04-03T13:05:23;0.30;;;0.30;;
13012;SDS011;22580;57.670;12.006;2023-04-03T13:07:53;0.40;;;0.40;;
13012;SDS011;22580;57.670;12.006;2023-04-03T13:10:43;1.70;;;0.47;;
13012;SDS011;22580;57.670;12.006;2023-04-03T13:13:53;0.40;;;0.40;;
13012;SDS011;22580;57.670;12.006;2023-04-03T13:16:34;1.70;;;0.60;;
13012;SDS011;22580;57.670;12.006;2023-04-03T13:19:14;1.10;;;0.60;;
13012;SDS011;22580;57.670;12.006;2023-04-03T13:24:37;0.70;;;0.47;;
13012;SDS011;22580;57.670;12.006;2023-04-03T13:27:44;1.13;;;0.40;;
13012;SDS011;22580;57.670;12.006;2023-04-03T13:30:26;0.77;;;0.50;;
13012;SDS011;22580;57.670;12.006;2023-04-03T13:33:24;0.80;;;0.80;;
13012;SDS011;22580;57.670;12.006;2023-04-03T13:36:06;0.60;;;0.30;;
13012;SDS011;22580;57.670;12.006;2023-04-03T13:39:21;0.67;;;0.40;;
13012;SDS011;22580;57.670;12.006;2023-04-03T13:41:56;0.77;;;0.30;;
13012;SDS011;22580;57.670;12.006;2023-04-03T13:44:33;0.50;;;0.40;;
13012;SDS011;22580;57.670;12.006;2023-04-03T13:47:14;0.77;;;0.50;;
13012;SDS011;22580;57.670;12.006;2023-04-03T13:50:15;0.30;;;0.30;;
13012;SDS011;22580;57.670;12.006;2023-04-03T13:52:54;0.30;;;0.30;;
13012;SDS011;22580;57.670;12.006;2023-04-03T13:55:53;0.43;;;0.43;;
13012;SDS011;22580;57.670;12.006;2023-04-03T13:58:54;0.90;;;0.57;;
13012;SDS011;22580;57.670;12.006;2023-04-03T14:01:45;0.77;;;0.37;;
13012;SDS011;22580;57.670;12.006;2023-04-03T14:04:27;0.20;;;0.20;;
13012;SDS011;22580;57.670;12.006;2023-04-03T14:07:04;0.20;;;0.20;;
13012;SDS011;22580;57.670;12.006;2023-04-03T14:09:34;0.50;;;0.33;;
13012;SDS011;22580;57.670;12.006;2023-04-03T14:12:06;0.47;;;0.40;;
13012;SDS011;22580;57.670;12.006;2023-04-03T14:14:41;0.43;;;0.30;;
13012;SDS011;22580;57.670;12.006;2023-04-03T14:17:14;0.60;;;0.50;;
13012;SDS011;22580;57.670;12.006;2023-04-03T14:22:32;1.00;;;0.40;;
13012;SDS011;22580;57.670;12.006;2023-04-03T14:25:03;0.80;;;0.40;;
13012;SDS011;22580;57.670;12.006;2023-04-03T14:27:46;0.40;;;0.30;;
13012;SDS011;22580;57.670;12.006;2023-04-03T14:33:15;0.37;;;0.30;;
13012;SDS011;22580;57.670;12.006;2023-04-03T14:35:52;0.93;;;0.40;;
13012;SDS011;22580;57.670;12.006;2023-04-03T14:38:23;0.50;;;0.40;;
13012;SDS011;22580;57.670;12.006;2023-04-03T14:40:55;0.50;;;0.40;;
13012;SDS011;22580;57.670;12.006;2023-04-03T14:43:34;0.60;;;0.50;;
13012;SDS011;22580;57.670;12.006;2023-04-03T14:46:01;0.20;;;0.20;;
13012;SDS011;22580;57.670;12.006;2023-04-03T14:48:33;0.77;;;0.33;;
13012;SDS011;22580;57.670;12.006;2023-04-03T14:51:04;0.70;;;0.33;;
13012;SDS011;22580;57.670;12.006;2023-04-03T14:53:34;1.30;;;0.50;;
13012;SDS011;22580;57.670;12.006;2023-04-03T14:56:04;0.73;;;0.30;;
13012;SDS011;22580;57.670;12.006;2023-04-03T14:58:53;0.90;;;0.40;;
13012;SDS011;22580;57.670;12.006;2023-04-03T15:01:32;0.50;;;0.37;;
13012;SDS011;22580;57.670;12.006;2023-04-03T15:04:04;0.30;;;0.30;;
13012;SDS011;22580;57.670;12.006;2023-04-03T15:06:43;0.30;;;0.30;;
13012;SDS011;22580;57.670;12.006;2023-04-03T15:09:25;0.37;;;0.37;;
13012;SDS011;22580;57.670;12.006;2023-04-03T15:12:04;0.20;;;0.20;;
13012;SDS011;22580;57.670;12.006;2023-04-03T15:14:37;0.30;;;0.30;;
13012;SDS011;22580;57.670;12.006;2023-04-03T15:17:23;1.00;;;0.40;;
13012;SDS011;22580;57.670;12.006;2023-04-03T15:20:05;1.40;;;0.60;;
13012;SDS011;22580;57.670;12.006;2023-04-03T15:22:44;0.50;;;0.33;;
13012;SDS011;22580;57.670;12.006;2023-04-03T15:25:13;1.20;;;0.43;;
13012;SDS011;22580;57.670;12.006;2023-04-03T15:27:42;0.27;;;0.27;;
13012;SDS011;22580;57.670;12.006;2023-04-03T15:30:14;0.70;;;0.50;;
13012;SDS011;22580;57.670;12.006;2023-04-03T15:32:42;0.30;;;0.30;;
13012;SDS011;22580;57.670;12.006;2023-04-03T15:35:15;0.70;;;0.43;;
13012;SDS011;22580;57.670;12.006;2023-04-03T15:37:42;0.60;;;0.60;;
13012;SDS011;22580;57.670;12.006;2023-04-03T15:40:27;0.43;;;0.30;;
13012;SDS011;22580;57.670;12.006;2023-04-03T15:45:45;0.20;;;0.20;;
13012;SDS011;22580;57.670;12.006;2023-04-03T15:48:14;0.30;;;0.30;;
13012;SDS011;22580;57.670;12.006;2023-04-03T15:50:43;0.30;;;0.30;;
13012;SDS011;22580;57.670;12.006;2023-04-03T15:53:16;0.40;;;0.40;;
13012;SDS011;22580;57.670;12.006;2023-04-03T15:58:33;0.90;;;0.40;;
13012;SDS011;22580;57.670;12.006;2023-04-03T16:01:05;0.40;;;0.40;;
13012;SDS011;22580;57.670;12.006;2023-04-03T16:03:32;0.30;;;0.30;;
13012;SDS011;22580;57.670;12.006;2023-04-03T16:06:02;0.30;;;0.20;;
13012;SDS011;22580;57.670;12.006;2023-04-03T16:08:35;0.50;;;0.20;;
13012;SDS011;22580;57.670;12.006;2023-04-03T16:11:14;0.20;;;0.20;;
13012;SDS011;22580;57.670;12.006;2023-04-03T16:13:43;0.30;;;0.30;;
13012;SDS011;22580;57.670;12.006;2023-04-03T16:16:11;0.40;;;0.30;;
13012;SDS011;22580;57.670;12.006;2023-04-03T16:18:41;0.20;;;0.20;;
13012;SDS011;22580;57.670;12.006;2023-04-03T16:21:13;0.30;;;0.30;;
13012;SDS011;22580;57.670;12.006;2023-04-03T16:23:42;0.57;;;0.20;;
13012;SDS011;22580;57.670;12.006;2023-04-03T16:26:15;0.30;;;0.30;;
13012;SDS011;22580;57.670;12.006;2023-04-03T16:28:53;0.30;;;0.20;;
13012;SDS011;22580;57.670;12.006;2023-04-03T16:31:22;0.40;;;0.30;;
13012;SDS011;22580;57.670;12.006;2023-04-03T16:33:52;0.20;;;0.20;;
13012;SDS011;22580;57.670;12.006;2023-04-03T16:36:21;0.10;;;0.10;;